sensor_id;sensor_type;location;lat;lon;timestamp;P1;durP1;ratioP1;P2;durP2;ratioP2
7759;SDS011;3924;48.830;9.262;2022-08-04T00:00:12;2.37;;;1.57;;
7759;SDS011;3924;48.830;9.262;2022-08-04T00:05:34;1.60;;;1.50;;
7759;SDS011;3924;48.830;9.262;2022-08-04T00:10:57;2.60;;;1.23;;
7759;SDS011;3924;48.830;9.262;2022-08-04T00:13:27;1.63;;;1.53;;
7759;SDS011;3924;48.830;9.262;2022-08-04T00:15:57;1.87;;;1.77;;
7759;SDS011;3924;48.830;9.262;2022-08-04T00:19:02;2.73;;;1.40;;
7759;SDS011;3924;48.830;9.262;2022-08-04T00:21:26;2.13;;;1.60;;
7759;SDS011;3924;48.830;9.262;2022-08-04T00:23:54;2.67;;;1.47;;
7759;SDS011;3924;48.830;9.262;2022-08-04T00:26:38;1.83;;;1.67;;
7759;SDS011;3924;48.830;9.262;2022-08-04T00:29:06;1.70;;;1.50;;
7759;SDS011;3924;48.830;9.262;2022-08-04T00:31:33;1.77;;;1.67;;
7759;SDS011;3924;48.830;9.262;2022-08-04T00:34:20;1.90;;;1.57;;
7759;SDS011;3924;48.830;9.262;2022-08-04T00:36:50;1.70;;;1.60;;
7759;SDS011;3924;48.830;9.262;2022-08-04T00:39:18;2.00;;;1.40;;
7759;SDS011;3924;48.830;9.262;2022-08-04T00:44:52;3.80;;;1.30;;
7759;SDS011;3924;48.830;9.262;2022-08-04T00:55:56;1.63;;;1.40;;
7759;SDS011;3924;48.830;9.262;2022-08-04T00:58:58;1.43;;;1.20;;
7759;SDS011;3924;48.830;9.262;2022-08-04T01:04:19;2.87;;;1.63;;
7759;SDS011;3924;48.830;9.262;2022-08-04T01:29:39;3.90;;;1.80;;
7759;SDS011;3924;48.830;9.262;2022-08-04T01:32:30;1.50;;;1.40;;
7759;SDS011;3924;48.830;9.262;2022-08-04T01:35:01;1.70;;;1.60;;
7759;SDS011;3924;48.830;9.262;2022-08-04T01:37:53;2.20;;;1.50;;
7759;SDS011;3924;48.830;9.262;2022-08-04T01:40:21;1.60;;;1.50;;
7759;SDS011;3924;48.830;9.262;2022-08-04T01:42:52;1.47;;;1.13;;
7759;SDS011;3924;48.830;9.262;2022-08-04T01:45:20;1.67;;;1.47;;
7759;SDS011;3924;48.830;9.262;2022-08-04T01:47:52;2.17;;;1.67;;
7759;SDS011;3924;48.830;9.262;2022-08-04T01:50:20;1.50;;;1.40;;
7759;SDS011;3924;48.830;9.262;2022-08-04T01:52:51;1.50;;;1.40;;
7759;SDS011;3924;48.830;9.262;2022-08-04T01:55:18;1.47;;;1.37;;
7759;SDS011;3924;48.830;9.262;2022-08-04T01:57:48;2.93;;;1.70;;
7759;SDS011;3924;48.830;9.262;2022-08-04T02:00:18;3.00;;;1.63;;
7759;SDS011;3924;48.830;9.262;2022-08-04T02:02:52;1.63;;;1.43;;
7759;SDS011;3924;48.830;9.262;2022-08-04T02:05:22;1.90;;;1.63;;
7759;SDS011;3924;48.830;9.262;2022-08-04T02:08:27;4.53;;;1.87;;
7759;SDS011;3924;48.830;9.262;2022-08-04T02:11:06;3.67;;;1.77;;
7759;SDS011;3924;48.830;9.262;2022-08-04T02:16:37;2.17;;;1.53;;
7759;SDS011;3924;48.830;9.262;2022-08-04T02:19:35;1.27;;;1.17;;
7759;SDS011;3924;48.830;9.262;2022-08-04T02:22:17;1.50;;;1.43;;
7759;SDS011;3924;48.830;9.262;2022-08-04T02:24:52;1.93;;;1.53;;
7759;SDS011;3924;48.830;9.262;2022-08-04T02:27:26;1.20;;;1.20;;
7759;SDS011;3924;48.830;9.262;2022-08-04T02:30:14;3.10;;;1.87;;
7759;SDS011;3924;48.830;9.262;2022-08-04T02:32:43;1.87;;;1.70;;
7759;SDS011;3924;48.830;9.262;2022-08-04T02:35:14;2.30;;;1.80;;
7759;SDS011;3924;48.830;9.262;2022-08-04T02:37:48;1.60;;;1.50;;
7759;SDS011;3924;48.830;9.262;2022-08-04T02:40:20;1.40;;;1.40;;
7759;SDS011;3924;48.830;9.262;2022-08-04T02:42:50;1.67;;;1.57;;
7759;SDS011;3924;48.830;9.262;2022-08-04T02:45:20;1.40;;;1.30;;
7759;SDS011;3924;48.830;9.262;2022-08-04T02:47:48;1.80;;;1.70;;
7759;SDS011;3924;48.830;9.262;2022-08-04T02:50:38;2.70;;;1.70;;
7759;SDS011;3924;48.830;9.262;2022-08-04T02:53:08;1.60;;;1.50;;
7759;SDS011;3924;48.830;9.262;2022-08-04T02:55:40;1.80;;;1.70;;
7759;SDS011;3924;48.830;9.262;2022-08-04T02:58:19;3.13;;;1.43;;
7759;SDS011;3924;48.830;9.262;2022-08-04T03:00:48;3.77;;;1.87;;
7759;SDS011;3924;48.830;9.262;2022-08-04T03:12:28;1.60;;;1.50;;
7759;SDS011;3924;48.830;9.262;2022-08-04T03:40:02;2.43;;;1.50;;
7759;SDS011;3924;48.830;9.262;2022-08-04T03:49:07;2.00;;;1.40;;
7759;SDS011;3924;48.830;9.262;2022-08-04T03:51:42;3.27;;;1.60;;
7759;SDS011;3924;48.830;9.262;2022-08-04T04:15:03;2.57;;;1.80;;
7759;SDS011;3924;48.830;9.262;2022-08-04T04:24:13;3.27;;;1.90;;
7759;SDS011;3924;48.830;9.262;2022-08-04T04:26:53;2.13;;;1.73;;
7759;SDS011;3924;48.830;9.262;2022-08-04T04:32:16;2.83;;;2.47;;
7759;SDS011;3924;48.830;9.262;2022-08-04T04:34:58;2.77;;;2.57;;
7759;SDS011;3924;48.830;9.262;2022-08-04T04:37:42;4.00;;;3.00;;
7759;SDS011;3924;48.830;9.262;2022-08-04T04:40:33;3.80;;;2.90;;
7759;SDS011;3924;48.830;9.262;2022-08-04T04:52:27;7.43;;;2.33;;
7759;SDS011;3924;48.830;9.262;2022-08-04T04:57:50;2.10;;;2.00;;
7759;SDS011;3924;48.830;9.262;2022-08-04T05:00:21;6.00;;;2.17;;
7759;SDS011;3924;48.830;9.262;2022-08-04T05:09:02;3.33;;;2.10;;
7759;SDS011;3924;48.830;9.262;2022-08-04T05:14:30;8.10;;;2.93;;
7759;SDS011;3924;48.830;9.262;2022-08-04T05:20:01;7.13;;;2.03;;
7759;SDS011;3924;48.830;9.262;2022-08-04T05:22:43;4.93;;;2.13;;
7759;SDS011;3924;48.830;9.262;2022-08-04T05:25:13;9.13;;;1.70;;
7759;SDS011;3924;48.830;9.262;2022-08-04T05:28:11;4.67;;;1.73;;
7759;SDS011;3924;48.830;9.262;2022-08-04T05:30:41;2.93;;;1.77;;
7759;SDS011;3924;48.830;9.262;2022-08-04T05:33:15;3.40;;;1.90;;
7759;SDS011;3924;48.830;9.262;2022-08-04T05:35:55;3.37;;;1.87;;
7759;SDS011;3924;48.830;9.262;2022-08-04T05:38:44;8.83;;;2.20;;
7759;SDS011;3924;48.830;9.262;2022-08-04T05:41:14;6.77;;;1.73;;
7759;SDS011;3924;48.830;9.262;2022-08-04T05:43:42;5.20;;;1.80;;
7759;SDS011;3924;48.830;9.262;2022-08-04T05:46:10;3.67;;;1.77;;
7759;SDS011;3924;48.830;9.262;2022-08-04T05:48:38;4.17;;;1.90;;
7759;SDS011;3924;48.830;9.262;2022-08-04T05:51:06;3.93;;;1.80;;
7759;SDS011;3924;48.830;9.262;2022-08-04T05:53:36;3.07;;;1.40;;
7759;SDS011;3924;48.830;9.262;2022-08-04T05:56:04;4.17;;;1.80;;
7759;SDS011;3924;48.830;9.262;2022-08-04T05:58:32;2.60;;;1.70;;
7759;SDS011;3924;48.830;9.262;2022-08-04T06:01:00;2.43;;;1.60;;
7759;SDS011;3924;48.830;9.262;2022-08-04T06:03:30;3.60;;;1.90;;
7759;SDS011;3924;48.830;9.262;2022-08-04T06:06:00;2.67;;;1.60;;
7759;SDS011;3924;48.830;9.262;2022-08-04T06:08:28;1.80;;;1.70;;
7759;SDS011;3924;48.830;9.262;2022-08-04T06:10:57;2.37;;;1.67;;
7759;SDS011;3924;48.830;9.262;2022-08-04T06:13:28;4.33;;;2.10;;
7759;SDS011;3924;48.830;9.262;2022-08-04T06:16:15;3.40;;;1.67;;
7759;SDS011;3924;48.830;9.262;2022-08-04T06:18:57;6.73;;;1.70;;
7759;SDS011;3924;48.830;9.262;2022-08-04T06:21:48;2.53;;;1.73;;
7759;SDS011;3924;48.830;9.262;2022-08-04T06:24:17;3.70;;;1.73;;
7759;SDS011;3924;48.830;9.262;2022-08-04T06:26:46;3.03;;;1.50;;
7759;SDS011;3924;48.830;9.262;2022-08-04T06:29:19;4.93;;;1.73;;
7759;SDS011;3924;48.830;9.262;2022-08-04T06:32:16;1.87;;;1.73;;
7759;SDS011;3924;48.830;9.262;2022-08-04T06:35:02;1.90;;;1.40;;
7759;SDS011;3924;48.830;9.262;2022-08-04T06:37:31;3.43;;;1.47;;
7759;SDS011;3924;48.830;9.262;2022-08-04T06:40:12;1.43;;;1.33;;
7759;SDS011;3924;48.830;9.262;2022-08-04T06:42:55;2.40;;;1.93;;
7759;SDS011;3924;48.830;9.262;2022-08-04T06:45:23;2.20;;;1.33;;
7759;SDS011;3924;48.830;9.262;2022-08-04T06:47:50;5.23;;;1.43;;
7759;SDS011;3924;48.830;9.262;2022-08-04T06:50:18;2.90;;;1.30;;
7759;SDS011;3924;48.830;9.262;2022-08-04T06:53:05;1.50;;;1.40;;
7759;SDS011;3924;48.830;9.262;2022-08-04T06:55:33;2.87;;;1.77;;
7759;SDS011;3924;48.830;9.262;2022-08-04T06:58:00;2.63;;;1.70;;
7759;SDS011;3924;48.830;9.262;2022-08-04T07:00:29;5.57;;;1.80;;
7759;SDS011;3924;48.830;9.262;2022-08-04T07:02:57;3.97;;;1.50;;
7759;SDS011;3924;48.830;9.262;2022-08-04T07:05:25;8.97;;;1.50;;
7759;SDS011;3924;48.830;9.262;2022-08-04T07:07:52;1.33;;;1.23;;
7759;SDS011;3924;48.830;9.262;2022-08-04T07:10:24;2.43;;;1.60;;
7759;SDS011;3924;48.830;9.262;2022-08-04T07:12:54;2.87;;;1.60;;
7759;SDS011;3924;48.830;9.262;2022-08-04T07:15:25;2.30;;;1.20;;
7759;SDS011;3924;48.830;9.262;2022-08-04T07:17:53;1.00;;;1.00;;
7759;SDS011;3924;48.830;9.262;2022-08-04T07:20:26;1.50;;;1.40;;
7759;SDS011;3924;48.830;9.262;2022-08-04T07:23:01;2.33;;;1.37;;
7759;SDS011;3924;48.830;9.262;2022-08-04T07:25:35;2.23;;;1.50;;
7759;SDS011;3924;48.830;9.262;2022-08-04T07:28:26;1.47;;;1.10;;
7759;SDS011;3924;48.830;9.262;2022-08-04T07:30:54;1.60;;;1.50;;
7759;SDS011;3924;48.830;9.262;2022-08-04T07:33:23;1.40;;;1.30;;
7759;SDS011;3924;48.830;9.262;2022-08-04T07:35:52;1.97;;;1.40;;
7759;SDS011;3924;48.830;9.262;2022-08-04T07:38:36;4.87;;;1.50;;
7759;SDS011;3924;48.830;9.262;2022-08-04T07:41:18;7.93;;;1.20;;
7759;SDS011;3924;48.830;9.262;2022-08-04T07:44:03;1.40;;;1.20;;
7759;SDS011;3924;48.830;9.262;2022-08-04T07:46:33;2.07;;;1.20;;
7759;SDS011;3924;48.830;9.262;2022-08-04T07:49:02;2.80;;;1.33;;
7759;SDS011;3924;48.830;9.262;2022-08-04T07:51:30;1.33;;;1.23;;
7759;SDS011;3924;48.830;9.262;2022-08-04T07:53:57;8.97;;;1.80;;
7759;SDS011;3924;48.830;9.262;2022-08-04T07:56:25;1.23;;;1.23;;
7759;SDS011;3924;48.830;9.262;2022-08-04T07:58:54;1.57;;;1.30;;
7759;SDS011;3924;48.830;9.262;2022-08-04T08:01:24;1.43;;;1.33;;
7759;SDS011;3924;48.830;9.262;2022-08-04T08:03:52;2.43;;;1.30;;
7759;SDS011;3924;48.830;9.262;2022-08-04T08:06:21;2.93;;;1.40;;
7759;SDS011;3924;48.830;9.262;2022-08-04T08:08:59;1.73;;;1.30;;
7759;SDS011;3924;48.830;9.262;2022-08-04T08:11:42;1.50;;;1.40;;
7759;SDS011;3924;48.830;9.262;2022-08-04T08:14:29;6.00;;;1.37;;
7759;SDS011;3924;48.830;9.262;2022-08-04T08:17:00;2.27;;;1.27;;
7759;SDS011;3924;48.830;9.262;2022-08-04T08:19:28;1.47;;;1.37;;
7759;SDS011;3924;48.830;9.262;2022-08-04T08:21:56;1.30;;;1.30;;
7759;SDS011;3924;48.830;9.262;2022-08-04T08:24:30;2.50;;;1.50;;
7759;SDS011;3924;48.830;9.262;2022-08-04T08:27:00;2.13;;;1.30;;
7759;SDS011;3924;48.830;9.262;2022-08-04T08:29:29;2.50;;;1.70;;
7759;SDS011;3924;48.830;9.262;2022-08-04T08:31:59;3.23;;;1.37;;
7759;SDS011;3924;48.830;9.262;2022-08-04T08:34:33;1.33;;;1.30;;
7759;SDS011;3924;48.830;9.262;2022-08-04T08:39:58;4.63;;;1.20;;
7759;SDS011;3924;48.830;9.262;2022-08-04T08:55:25;1.40;;;1.30;;
7759;SDS011;3924;48.830;9.262;2022-08-04T08:58:07;1.33;;;1.23;;
7759;SDS011;3924;48.830;9.262;2022-08-04T09:03:55;2.10;;;1.30;;
7759;SDS011;3924;48.830;9.262;2022-08-04T09:06:53;1.40;;;1.30;;
7759;SDS011;3924;48.830;9.262;2022-08-04T09:12:29;1.97;;;1.30;;
7759;SDS011;3924;48.830;9.262;2022-08-04T09:17:56;1.80;;;1.70;;
7759;SDS011;3924;48.830;9.262;2022-08-04T09:20:44;2.20;;;1.40;;
7759;SDS011;3924;48.830;9.262;2022-08-04T09:28:52;1.60;;;1.27;;
7759;SDS011;3924;48.830;9.262;2022-08-04T09:37:43;4.70;;;1.50;;
7759;SDS011;3924;48.830;9.262;2022-08-04T09:40:25;1.20;;;1.20;;
7759;SDS011;3924;48.830;9.262;2022-08-04T09:47:09;1.50;;;1.40;;
7759;SDS011;3924;48.830;9.262;2022-08-04T09:49:54;1.97;;;1.70;;
7759;SDS011;3924;48.830;9.262;2022-08-04T09:57:58;1.50;;;1.30;;
7759;SDS011;3924;48.830;9.262;2022-08-04T10:00:34;4.07;;;1.57;;
7759;SDS011;3924;48.830;9.262;2022-08-04T10:03:08;6.10;;;1.67;;
7759;SDS011;3924;48.830;9.262;2022-08-04T10:05:59;1.37;;;1.27;;
7759;SDS011;3924;48.830;9.262;2022-08-04T10:14:57;1.27;;;1.10;;
7759;SDS011;3924;48.830;9.262;2022-08-04T10:23:41;1.70;;;1.60;;
7759;SDS011;3924;48.830;9.262;2022-08-04T10:29:25;3.03;;;1.50;;
7759;SDS011;3924;48.830;9.262;2022-08-04T10:34:35;1.30;;;1.30;;
7759;SDS011;3924;48.830;9.262;2022-08-04T10:40:16;1.50;;;1.40;;
7759;SDS011;3924;48.830;9.262;2022-08-04T10:43:04;1.50;;;1.40;;
7759;SDS011;3924;48.830;9.262;2022-08-04T10:48:55;1.60;;;1.57;;
7759;SDS011;3924;48.830;9.262;2022-08-04T10:51:45;1.97;;;1.73;;
7759;SDS011;3924;48.830;9.262;2022-08-04T10:57:32;1.53;;;1.43;;
7759;SDS011;3924;48.830;9.262;2022-08-04T11:00:11;1.97;;;1.53;;
7759;SDS011;3924;48.830;9.262;2022-08-04T11:02:58;1.30;;;1.20;;
7759;SDS011;3924;48.830;9.262;2022-08-04T11:05:49;3.03;;;1.40;;
7759;SDS011;3924;48.830;9.262;2022-08-04T11:14:08;1.67;;;1.50;;
7759;SDS011;3924;48.830;9.262;2022-08-04T11:17:07;1.97;;;1.30;;
7759;SDS011;3924;48.830;9.262;2022-08-04T11:19:56;2.07;;;1.43;;
7759;SDS011;3924;48.830;9.262;2022-08-04T11:23:02;3.60;;;1.83;;
7759;SDS011;3924;48.830;9.262;2022-08-04T11:25:56;1.40;;;1.40;;
7759;SDS011;3924;48.830;9.262;2022-08-04T11:31:34;1.90;;;1.50;;
7759;SDS011;3924;48.830;9.262;2022-08-04T11:34:12;5.43;;;1.53;;
7759;SDS011;3924;48.830;9.262;2022-08-04T11:39:43;1.80;;;1.70;;
7759;SDS011;3924;48.830;9.262;2022-08-04T11:42:21;1.57;;;1.43;;
7759;SDS011;3924;48.830;9.262;2022-08-04T11:44:54;3.23;;;1.40;;
7759;SDS011;3924;48.830;9.262;2022-08-04T11:47:40;2.40;;;1.60;;
7759;SDS011;3924;48.830;9.262;2022-08-04T11:52:45;1.87;;;1.33;;
7759;SDS011;3924;48.830;9.262;2022-08-04T11:55:15;1.30;;;1.30;;
7759;SDS011;3924;48.830;9.262;2022-08-04T11:57:46;1.53;;;1.50;;
7759;SDS011;3924;48.830;9.262;2022-08-04T12:00:19;1.73;;;1.30;;
7759;SDS011;3924;48.830;9.262;2022-08-04T12:05:34;1.60;;;1.50;;
7759;SDS011;3924;48.830;9.262;2022-08-04T12:11:03;1.33;;;1.23;;
7759;SDS011;3924;48.830;9.262;2022-08-04T12:13:53;4.00;;;1.63;;
7759;SDS011;3924;48.830;9.262;2022-08-04T12:16:35;1.57;;;1.47;;
7759;SDS011;3924;48.830;9.262;2022-08-04T12:19:20;1.43;;;1.40;;
7759;SDS011;3924;48.830;9.262;2022-08-04T12:22:05;1.70;;;1.43;;
7759;SDS011;3924;48.830;9.262;2022-08-04T12:24:38;1.10;;;1.10;;
7759;SDS011;3924;48.830;9.262;2022-08-04T12:30:00;1.80;;;1.20;;
7759;SDS011;3924;48.830;9.262;2022-08-04T12:32:55;1.30;;;1.30;;
7759;SDS011;3924;48.830;9.262;2022-08-04T12:35:49;2.10;;;1.63;;
7759;SDS011;3924;48.830;9.262;2022-08-04T12:38:37;1.33;;;1.23;;
7759;SDS011;3924;48.830;9.262;2022-08-04T12:41:12;1.43;;;1.40;;
7759;SDS011;3924;48.830;9.262;2022-08-04T12:43:44;2.20;;;1.40;;
7759;SDS011;3924;48.830;9.262;2022-08-04T12:46:22;1.53;;;1.37;;
7759;SDS011;3924;48.830;9.262;2022-08-04T12:48:51;1.33;;;1.30;;
7759;SDS011;3924;48.830;9.262;2022-08-04T12:51:26;1.33;;;1.33;;
7759;SDS011;3924;48.830;9.262;2022-08-04T12:54:13;1.53;;;1.43;;
7759;SDS011;3924;48.830;9.262;2022-08-04T12:56:56;1.60;;;1.50;;
7759;SDS011;3924;48.830;9.262;2022-08-04T12:59:24;1.33;;;1.27;;
7759;SDS011;3924;48.830;9.262;2022-08-04T13:01:51;1.47;;;1.40;;
7759;SDS011;3924;48.830;9.262;2022-08-04T13:04:36;2.23;;;1.60;;
7759;SDS011;3924;48.830;9.262;2022-08-04T13:07:26;1.67;;;1.57;;
7759;SDS011;3924;48.830;9.262;2022-08-04T13:10:04;1.73;;;1.50;;
7759;SDS011;3924;48.830;9.262;2022-08-04T13:12:37;1.50;;;1.40;;
7759;SDS011;3924;48.830;9.262;2022-08-04T13:15:13;1.60;;;1.50;;
7759;SDS011;3924;48.830;9.262;2022-08-04T13:18:07;1.73;;;1.40;;
7759;SDS011;3924;48.830;9.262;2022-08-04T13:20:40;8.30;;;1.60;;
7759;SDS011;3924;48.830;9.262;2022-08-04T13:23:10;1.67;;;1.57;;
7759;SDS011;3924;48.830;9.262;2022-08-04T13:25:47;1.70;;;1.60;;
7759;SDS011;3924;48.830;9.262;2022-08-04T13:28:38;5.63;;;1.50;;
7759;SDS011;3924;48.830;9.262;2022-08-04T13:31:09;1.40;;;1.30;;
7759;SDS011;3924;48.830;9.262;2022-08-04T13:33:43;6.57;;;1.93;;
7759;SDS011;3924;48.830;9.262;2022-08-04T13:36:11;1.60;;;1.50;;
7759;SDS011;3924;48.830;9.262;2022-08-04T13:38:44;1.63;;;1.53;;
7759;SDS011;3924;48.830;9.262;2022-08-04T13:41:15;2.80;;;1.60;;
7759;SDS011;3924;48.830;9.262;2022-08-04T13:43:43;2.17;;;1.83;;
7759;SDS011;3924;48.830;9.262;2022-08-04T13:46:32;1.57;;;1.40;;
7759;SDS011;3924;48.830;9.262;2022-08-04T13:49:05;1.70;;;1.60;;
7759;SDS011;3924;48.830;9.262;2022-08-04T13:51:59;1.40;;;1.30;;
7759;SDS011;3924;48.830;9.262;2022-08-04T13:54:36;1.43;;;1.40;;
7759;SDS011;3924;48.830;9.262;2022-08-04T13:57:27;2.10;;;1.47;;
7759;SDS011;3924;48.830;9.262;2022-08-04T13:59:57;2.05;;;1.40;;
7759;SDS011;3924;48.830;9.262;2022-08-04T14:02:32;1.10;;;1.10;;
7759;SDS011;3924;48.830;9.262;2022-08-04T14:05:07;2.07;;;1.30;;
7759;SDS011;3924;48.830;9.262;2022-08-04T14:07:46;6.30;;;1.87;;
7759;SDS011;3924;48.830;9.262;2022-08-04T14:10:15;1.43;;;1.43;;
7759;SDS011;3924;48.830;9.262;2022-08-04T14:12:45;2.60;;;1.63;;
7759;SDS011;3924;48.830;9.262;2022-08-04T14:18:19;1.60;;;1.50;;
7759;SDS011;3924;48.830;9.262;2022-08-04T14:26:20;3.53;;;1.45;;
7759;SDS011;3924;48.830;9.262;2022-08-04T14:31:59;3.53;;;1.70;;
7759;SDS011;3924;48.830;9.262;2022-08-04T14:34:29;1.58;;;1.48;;
7759;SDS011;3924;48.830;9.262;2022-08-04T14:37:08;1.40;;;1.38;;
7759;SDS011;3924;48.830;9.262;2022-08-04T14:39:53;3.55;;;1.60;;
7759;SDS011;3924;48.830;9.262;2022-08-04T14:42:43;1.50;;;1.40;;
7759;SDS011;3924;48.830;9.262;2022-08-04T14:45:40;1.60;;;1.50;;
7759;SDS011;3924;48.830;9.262;2022-08-04T14:48:20;6.53;;;1.67;;
7759;SDS011;3924;48.830;9.262;2022-08-04T14:50:47;1.63;;;1.53;;
7759;SDS011;3924;48.830;9.262;2022-08-04T14:53:19;1.73;;;1.63;;
7759;SDS011;3924;48.830;9.262;2022-08-04T14:55:48;2.83;;;1.70;;
7759;SDS011;3924;48.830;9.262;2022-08-04T14:58:17;5.47;;;1.35;;
7759;SDS011;3924;48.830;9.262;2022-08-04T15:01:04;1.50;;;1.40;;
7759;SDS011;3924;48.830;9.262;2022-08-04T15:03:35;2.63;;;1.90;;
7759;SDS011;3924;48.830;9.262;2022-08-04T15:06:17;3.42;;;1.50;;
7759;SDS011;3924;48.830;9.262;2022-08-04T15:08:48;2.63;;;1.70;;
7759;SDS011;3924;48.830;9.262;2022-08-04T15:11:15;1.70;;;1.60;;
7759;SDS011;3924;48.830;9.262;2022-08-04T15:13:49;3.10;;;1.80;;
7759;SDS011;3924;48.830;9.262;2022-08-04T15:16:25;4.25;;;1.63;;
7759;SDS011;3924;48.830;9.262;2022-08-04T15:18:53;1.48;;;1.40;;
7759;SDS011;3924;48.830;9.262;2022-08-04T15:21:23;3.03;;;2.10;;
7759;SDS011;3924;48.830;9.262;2022-08-04T15:23:56;4.00;;;1.55;;
7759;SDS011;3924;48.830;9.262;2022-08-04T15:26:32;1.60;;;1.50;;
7759;SDS011;3924;48.830;9.262;2022-08-04T15:29:13;1.67;;;1.58;;
7759;SDS011;3924;48.830;9.262;2022-08-04T15:31:43;2.75;;;1.70;;
7759;SDS011;3924;48.830;9.262;2022-08-04T15:34:46;2.40;;;1.58;;
7759;SDS011;3924;48.830;9.262;2022-08-04T15:37:16;1.50;;;1.48;;
7759;SDS011;3924;48.830;9.262;2022-08-04T15:39:51;2.53;;;1.80;;
7759;SDS011;3924;48.830;9.262;2022-08-04T15:42:45;2.08;;;1.45;;
7759;SDS011;3924;48.830;9.262;2022-08-04T15:45:47;6.07;;;1.50;;
7759;SDS011;3924;48.830;9.262;2022-08-04T15:48:40;2.75;;;1.83;;
7759;SDS011;3924;48.830;9.262;2022-08-04T15:51:10;3.03;;;1.65;;
7759;SDS011;3924;48.830;9.262;2022-08-04T15:58:55;3.60;;;2.10;;
7759;SDS011;3924;48.830;9.262;2022-08-04T16:01:22;1.70;;;1.60;;
7759;SDS011;3924;48.830;9.262;2022-08-04T16:03:49;1.60;;;1.50;;
7759;SDS011;3924;48.830;9.262;2022-08-04T16:09:02;5.18;;;2.05;;
7759;SDS011;3924;48.830;9.262;2022-08-04T16:16:28;2.72;;;1.52;;
7759;SDS011;3924;48.830;9.262;2022-08-04T16:18:55;4.88;;;1.80;;
7759;SDS011;3924;48.830;9.262;2022-08-04T16:21:31;2.00;;;1.90;;
7759;SDS011;3924;48.830;9.262;2022-08-04T16:24:09;3.13;;;1.40;;
7759;SDS011;3924;48.830;9.262;2022-08-04T16:32:20;1.92;;;1.70;;
7759;SDS011;3924;48.830;9.262;2022-08-04T16:34:59;3.28;;;1.60;;
7759;SDS011;3924;48.830;9.262;2022-08-04T16:37:32;1.95;;;1.40;;
7759;SDS011;3924;48.830;9.262;2022-08-04T16:43:27;6.85;;;1.70;;
7759;SDS011;3924;48.830;9.262;2022-08-04T16:45:48;1.77;;;1.55;;
7759;SDS011;3924;48.830;9.262;2022-08-04T16:48:26;1.73;;;1.63;;
7759;SDS011;3924;48.830;9.262;2022-08-04T16:53:40;1.90;;;1.80;;
7759;SDS011;3924;48.830;9.262;2022-08-04T16:56:32;1.80;;;1.70;;
7759;SDS011;3924;48.830;9.262;2022-08-04T16:59:04;1.75;;;1.65;;
7759;SDS011;3924;48.830;9.262;2022-08-04T17:01:33;3.75;;;1.95;;
7759;SDS011;3924;48.830;9.262;2022-08-04T17:04:01;1.58;;;1.48;;
7759;SDS011;3924;48.830;9.262;2022-08-04T17:06:33;1.55;;;1.40;;
7759;SDS011;3924;48.830;9.262;2022-08-04T17:09:11;2.58;;;1.50;;
7759;SDS011;3924;48.830;9.262;2022-08-04T17:11:41;1.70;;;1.60;;
7759;SDS011;3924;48.830;9.262;2022-08-04T17:14:09;3.28;;;1.73;;
7759;SDS011;3924;48.830;9.262;2022-08-04T17:16:37;2.13;;;1.90;;
7759;SDS011;3924;48.830;9.262;2022-08-04T17:19:08;3.50;;;1.80;;
7759;SDS011;3924;48.830;9.262;2022-08-04T17:21:52;1.60;;;1.50;;
7759;SDS011;3924;48.830;9.262;2022-08-04T17:24:29;1.80;;;1.70;;
7759;SDS011;3924;48.830;9.262;2022-08-04T17:26:56;1.88;;;1.60;;
7759;SDS011;3924;48.830;9.262;2022-08-04T17:29:25;5.65;;;2.45;;
7759;SDS011;3924;48.830;9.262;2022-08-04T17:35:03;1.83;;;1.70;;
7759;SDS011;3924;48.830;9.262;2022-08-04T17:37:29;2.35;;;1.40;;
7759;SDS011;3924;48.830;9.262;2022-08-04T17:40:09;1.95;;;1.85;;
7759;SDS011;3924;48.830;9.262;2022-08-04T17:43:03;1.70;;;1.60;;
7759;SDS011;3924;48.830;9.262;2022-08-04T17:51:26;3.08;;;1.27;;
7759;SDS011;3924;48.830;9.262;2022-08-04T17:54:18;1.88;;;1.70;;
7759;SDS011;3924;48.830;9.262;2022-08-04T17:57:17;1.65;;;1.55;;
7759;SDS011;3924;48.830;9.262;2022-08-04T18:00:05;2.75;;;1.55;;
7759;SDS011;3924;48.830;9.262;2022-08-04T18:02:50;3.45;;;1.30;;
7759;SDS011;3924;48.830;9.262;2022-08-04T18:05:25;6.82;;;1.60;;
7759;SDS011;3924;48.830;9.262;2022-08-04T18:08:13;1.67;;;1.58;;
7759;SDS011;3924;48.830;9.262;2022-08-04T18:11:00;1.70;;;1.60;;
7759;SDS011;3924;48.830;9.262;2022-08-04T18:13:26;1.67;;;1.57;;
7759;SDS011;3924;48.830;9.262;2022-08-04T18:16:00;1.92;;;1.40;;
7759;SDS011;3924;48.830;9.262;2022-08-04T18:19:06;1.73;;;1.63;;
7759;SDS011;3924;48.830;9.262;2022-08-04T18:21:44;1.60;;;1.50;;
7759;SDS011;3924;48.830;9.262;2022-08-04T18:24:28;3.55;;;1.50;;
7759;SDS011;3924;48.830;9.262;2022-08-04T18:27:16;1.77;;;1.63;;
7759;SDS011;3924;48.830;9.262;2022-08-04T18:29:48;2.13;;;1.85;;
7759;SDS011;3924;48.830;9.262;2022-08-04T18:32:36;1.87;;;1.67;;
7759;SDS011;3924;48.830;9.262;2022-08-04T18:35:23;3.15;;;2.10;;
7759;SDS011;3924;48.830;9.262;2022-08-04T18:38:10;5.75;;;1.83;;
7759;SDS011;3924;48.830;9.262;2022-08-04T18:40:49;1.80;;;1.70;;
7759;SDS011;3924;48.830;9.262;2022-08-04T18:43:19;1.60;;;1.50;;
7759;SDS011;3924;48.830;9.262;2022-08-04T18:45:55;1.63;;;1.55;;
7759;SDS011;3924;48.830;9.262;2022-08-04T18:48:24;2.13;;;2.03;;
7759;SDS011;3924;48.830;9.262;2022-08-04T18:51:02;3.10;;;1.95;;
7759;SDS011;3924;48.830;9.262;2022-08-04T18:53:47;3.10;;;1.90;;
7759;SDS011;3924;48.830;9.262;2022-08-04T18:56:24;2.33;;;1.80;;
7759;SDS011;3924;48.830;9.262;2022-08-04T18:58:57;1.90;;;1.80;;
7759;SDS011;3924;48.830;9.262;2022-08-04T19:01:44;3.88;;;2.00;;
7759;SDS011;3924;48.830;9.262;2022-08-04T19:04:31;1.93;;;1.83;;
7759;SDS011;3924;48.830;9.262;2022-08-04T19:07:03;3.92;;;1.98;;
7759;SDS011;3924;48.830;9.262;2022-08-04T19:09:50;2.67;;;1.70;;
7759;SDS011;3924;48.830;9.262;2022-08-04T19:12:25;7.63;;;2.40;;
7759;SDS011;3924;48.830;9.262;2022-08-04T19:15:12;1.98;;;1.88;;
7759;SDS011;3924;48.830;9.262;2022-08-04T19:17:44;6.10;;;2.58;;
7759;SDS011;3924;48.830;9.262;2022-08-04T19:20:25;2.13;;;2.03;;
7759;SDS011;3924;48.830;9.262;2022-08-04T19:22:55;2.35;;;2.20;;
7759;SDS011;3924;48.830;9.262;2022-08-04T19:25:42;3.67;;;2.25;;
7759;SDS011;3924;48.830;9.262;2022-08-04T19:28:30;3.80;;;2.17;;
7759;SDS011;3924;48.830;9.262;2022-08-04T19:31:09;3.28;;;2.53;;
7759;SDS011;3924;48.830;9.262;2022-08-04T19:33:42;3.90;;;2.60;;
7759;SDS011;3924;48.830;9.262;2022-08-04T19:36:29;3.43;;;2.73;;
7759;SDS011;3924;48.830;9.262;2022-08-04T19:38:58;2.60;;;2.23;;
7759;SDS011;3924;48.830;9.262;2022-08-04T19:41:27;3.43;;;2.33;;
7759;SDS011;3924;48.830;9.262;2022-08-04T19:44:23;3.30;;;2.22;;
7759;SDS011;3924;48.830;9.262;2022-08-04T19:46:49;2.20;;;2.10;;
7759;SDS011;3924;48.830;9.262;2022-08-04T19:49:17;2.13;;;2.03;;
7759;SDS011;3924;48.830;9.262;2022-08-04T19:52:04;4.40;;;2.20;;
7759;SDS011;3924;48.830;9.262;2022-08-04T19:54:32;3.10;;;2.40;;
7759;SDS011;3924;48.830;9.262;2022-08-04T19:57:00;2.72;;;2.33;;
7759;SDS011;3924;48.830;9.262;2022-08-04T19:59:27;5.10;;;2.65;;
7759;SDS011;3924;48.830;9.262;2022-08-04T20:01:57;10.52;;;2.60;;
7759;SDS011;3924;48.830;9.262;2022-08-04T20:04:25;4.68;;;2.08;;
7759;SDS011;3924;48.830;9.262;2022-08-04T20:06:56;4.30;;;2.80;;
7759;SDS011;3924;48.830;9.262;2022-08-04T20:09:22;2.87;;;2.43;;
7759;SDS011;3924;48.830;9.262;2022-08-04T20:11:55;2.23;;;2.00;;
7759;SDS011;3924;48.830;9.262;2022-08-04T20:14:24;4.83;;;2.63;;
7759;SDS011;3924;48.830;9.262;2022-08-04T20:17:04;6.27;;;2.50;;
7759;SDS011;3924;48.830;9.262;2022-08-04T20:19:35;6.93;;;2.13;;
7759;SDS011;3924;48.830;9.262;2022-08-04T20:22:02;3.33;;;2.05;;
7759;SDS011;3924;48.830;9.262;2022-08-04T20:24:29;2.30;;;2.17;;
7759;SDS011;3924;48.830;9.262;2022-08-04T20:27:11;2.73;;;2.53;;
7759;SDS011;3924;48.830;9.262;2022-08-04T20:29:42;2.55;;;2.20;;
7759;SDS011;3924;48.830;9.262;2022-08-04T20:32:14;5.25;;;2.55;;
7759;SDS011;3924;48.830;9.262;2022-08-04T20:34:48;2.80;;;2.43;;
7759;SDS011;3924;48.830;9.262;2022-08-04T20:37:16;3.33;;;2.67;;
7759;SDS011;3924;48.830;9.262;2022-08-04T20:39:43;3.00;;;2.80;;
7759;SDS011;3924;48.830;9.262;2022-08-04T20:42:20;4.20;;;2.50;;
7759;SDS011;3924;48.830;9.262;2022-08-04T20:44:58;2.72;;;2.35;;
7759;SDS011;3924;48.830;9.262;2022-08-04T20:47:26;5.60;;;2.90;;
7759;SDS011;3924;48.830;9.262;2022-08-04T20:50:01;3.28;;;2.63;;
7759;SDS011;3924;48.830;9.262;2022-08-04T20:52:34;6.50;;;2.50;;